Time;durP1;ratioP1;P1;durP2;ratioP2;P2;SDS_P1;SDS_P2;PMS_P1;PMS_P2;Temp;Humidity;BMP_temperature;BMP_pressure;BME280_temperature;BME280_humidity;BME280_pressure;Samples;Min_cycle;Max_cycle;Signal;HPM_P1;HPM_P2
2022/10/30 00:00:52;;;;;;;4.40;3.20;;;13.50;98.00;;;;;;5132946;28;20465;-67
2022/10/30 00:03:19;;;;;;;5.87;2.87;;;13.50;98.00;;;;;;5132725;28;20463;-67
2022/10/30 00:05:50;;;;;;;9.07;3.10;;;13.50;98.00;;;;;;5131711;28;20477;-67
2022/10/30 00:08:19;;;;;;;8.60;3.10;;;13.50;98.00;;;;;;5132798;28;20452;-67
2022/10/30 00:10:49;;;;;;;5.53;2.90;;;13.60;98.00;;;;;;5132688;27;20453;-67
2022/10/30 00:13:16;;;;;;;5.87;3.43;;;13.70;98.00;;;;;;5132817;28;20461;-67
2022/10/30 00:15:49;;;;;;;6.23;3.00;;;13.60;98.00;;;;;;5133051;27;20515;-67
2022/10/30 00:18:17;;;;;;;4.57;2.83;;;13.40;98.00;;;;;;5137020;27;20464;-67
2022/10/30 00:20:44;;;;;;;6.00;3.27;;;13.30;98.00;;;;;;5137111;27;20503;-67
2022/10/30 00:23:11;;;;;;;5.77;3.00;;;13.20;98.00;;;;;;5136994;27;20831;-67
2022/10/30 00:25:38;;;;;;;6.00;3.20;;;13.20;98.00;;;;;;5136762;27;20481;-67
2022/10/30 00:28:07;;;;;;;6.13;2.70;;;13.30;98.00;;;;;;5136850;27;20449;-67
2022/10/30 00:30:35;;;;;;;5.53;3.33;;;13.20;98.00;;;;;;5134450;27;20453;-67
2022/10/30 00:33:04;;;;;;;10.80;4.10;;;13.10;98.00;;;;;;5136780;27;20461;-67
2022/10/30 00:35:32;;;;;;;3.90;2.53;;;13.10;98.00;;;;;;5136917;27;20469;-67
2022/10/30 00:38:00;;;;;;;4.50;2.77;;;13.20;98.00;;;;;;5136799;27;20450;-67
2022/10/30 00:40:27;;;;;;;7.17;2.90;;;13.30;98.00;;;;;;5136407;27;20461;-67
2022/10/30 00:42:54;;;;;;;6.80;3.43;;;13.20;98.00;;;;;;5135428;27;20445;-67
2022/10/30 00:45:22;;;;;;;3.30;2.20;;;13.20;98.00;;;;;;5136080;27;20472;-67
2022/10/30 00:47:53;;;;;;;7.13;3.30;;;13.30;98.00;;;;;;5136465;27;20458;-67
2022/10/30 00:50:25;;;;;;;6.47;3.00;;;13.40;98.00;;;;;;5136206;27;20465;-67
2022/10/30 00:53:00;;;;;;;8.00;2.57;;;13.40;98.00;;;;;;5136217;27;20797;-67
2022/10/30 00:55:32;;;;;;;5.70;2.70;;;13.30;98.00;;;;;;5136199;27;21124;-67
2022/10/30 00:58:06;;;;;;;4.67;2.53;;;13.20;98.00;;;;;;5136191;27;20460;-67
2022/10/30 01:00:36;;;;;;;3.80;2.43;;;13.30;98.00;;;;;;5135804;27;20482;-67
2022/10/30 01:03:04;;;;;;;3.70;2.40;;;13.10;98.00;;;;;;5136124;27;20461;-67
2022/10/30 01:05:34;;;;;;;9.13;2.93;;;13.10;98.00;;;;;;5136094;27;20488;-67
2022/10/30 01:08:01;;;;;;;6.43;3.07;;;13.00;98.00;;;;;;5136257;27;20453;-67
2022/10/30 01:10:28;;;;;;;3.90;2.60;;;12.90;98.00;;;;;;5136025;27;20976;-67
2022/10/30 01:12:58;;;;;;;3.17;2.60;;;12.90;98.00;;;;;;5134576;27;20466;-67
2022/10/30 01:15:30;;;;;;;4.57;2.20;;;12.90;98.00;;;;;;5135973;27;20452;-67
2022/10/30 01:18:29;;;;;;;4.90;2.80;;;12.90;98.00;;;;;;5136173;27;20456;-67
2022/10/30 01:21:11;;;;;;;3.93;2.27;;;13.00;98.00;;;;;;5136173;27;20463;-67
2022/10/30 01:23:49;;;;;;;5.80;3.23;;;13.00;98.00;;;;;;5135925;27;20544;-67
2022/10/30 01:26:26;;;;;;;5.43;2.80;;;13.10;98.00;;;;;;5135849;27;20515;-67
2022/10/30 01:29:06;;;;;;;4.03;2.27;;;13.20;98.00;;;;;;5134953;27;20837;-67
2022/10/30 01:31:44;;;;;;;7.40;2.67;;;13.20;98.00;;;;;;5135509;27;20804;-67
2022/10/30 01:34:19;;;;;;;6.07;3.00;;;13.10;98.00;;;;;;5135634;27;20529;-67
2022/10/30 01:36:54;;;;;;;4.23;2.77;;;13.00;98.00;;;;;;5135223;27;20460;-67
2022/10/30 01:39:24;;;;;;;5.93;3.33;;;13.00;98.00;;;;;;5135336;27;20460;-67
2022/10/30 01:41:51;;;;;;;8.50;3.23;;;12.90;98.00;;;;;;5135234;27;20453;-67
2022/10/30 01:44:22;;;;;;;4.00;2.40;;;13.00;98.00;;;;;;5135174;27;20459;-67
2022/10/30 01:47:00;;;;;;;6.70;2.90;;;13.00;98.00;;;;;;5135062;27;20487;-67
2022/10/30 01:50:06;;;;;;;7.57;4.10;;;13.10;98.00;;;;;;5135129;27;20468;-67
2022/10/30 01:52:42;;;;;;;6.50;3.10;;;12.90;98.00;;;;;;5120835;27;20518;-67
2022/10/30 01:55:18;;;;;;;3.50;2.30;;;12.90;98.00;;;;;;5135205;27;20459;-67
2022/10/30 01:57:54;;;;;;;3.70;2.40;;;12.80;98.00;;;;;;5134960;27;20467;-67
2022/10/30 02:00:21;;;;;;;5.53;2.60;;;12.70;98.00;;;;;;5134982;27;20513;-67
2022/10/30 02:02:50;;;;;;;5.80;2.80;;;12.70;98.00;;;;;;5134918;27;20966;-67
2022/10/30 02:05:29;;;;;;;3.30;2.57;;;12.80;98.00;;;;;;5134895;27;20493;-67
2022/10/30 02:07:57;;;;;;;6.43;3.00;;;13.10;98.00;;;;;;5135088;27;20544;-67
2022/10/30 02:10:24;;;;;;;8.10;3.10;;;13.10;98.00;;;;;;5134908;27;20452;-67
2022/10/30 02:12:51;;;;;;;3.67;2.20;;;13.10;98.00;;;;;;5134969;27;20459;-67
2022/10/30 02:15:19;;;;;;;7.17;2.93;;;13.00;98.00;;;;;;5133634;27;20451;-67
2022/10/30 02:17:46;;;;;;;3.40;2.40;;;12.90;98.00;;;;;;5134765;27;20451;-67
2022/10/30 02:20:18;;;;;;;6.30;2.60;;;12.80;98.00;;;;;;5134777;27;20462;-67
2022/10/30 02:22:46;;;;;;;7.03;2.63;;;12.60;98.00;;;;;;5134825;27;20454;-68
2022/10/30 02:25:13;;;;;;;4.97;2.33;;;12.50;98.00;;;;;;5133081;27;20858;-67
2022/10/30 02:27:41;;;;;;;3.80;2.20;;;12.40;98.00;;;;;;5134424;27;20461;-67
2022/10/30 02:30:09;;;;;;;3.13;2.43;;;12.40;98.00;;;;;;5134177;27;20470;-67
2022/10/30 02:32:37;;;;;;;5.90;2.83;;;12.40;98.00;;;;;;5134392;27;20453;-67
2022/10/30 02:35:07;;;;;;;10.60;3.23;;;12.40;98.00;;;;;;5134125;27;20457;-67
2022/10/30 02:37:36;;;;;;;5.83;2.70;;;12.40;98.00;;;;;;5134222;27;20448;-67
2022/10/30 02:40:03;;;;;;;5.90;3.10;;;12.40;98.00;;;;;;5134021;27;20451;-67
2022/10/30 02:42:30;;;;;;;4.20;2.20;;;12.30;98.00;;;;;;5132847;27;20458;-67
2022/10/30 02:44:58;;;;;;;5.90;2.60;;;12.40;98.00;;;;;;5134167;27;20456;-67
2022/10/30 02:47:25;;;;;;;5.33;2.47;;;12.50;98.00;;;;;;5133793;27;20883;-67
2022/10/30 02:49:52;;;;;;;3.07;2.10;;;12.50;98.00;;;;;;5134046;27;20826;-67
2022/10/30 02:52:19;;;;;;;5.27;2.63;;;12.50;98.00;;;;;;5133880;27;20457;-67
2022/10/30 02:54:48;;;;;;;7.50;2.20;;;12.70;98.00;;;;;;5133827;27;20848;-67
2022/10/30 02:57:15;;;;;;;4.10;2.30;;;12.70;98.00;;;;;;5133735;27;20838;-67
2022/10/30 02:59:42;;;;;;;4.43;2.50;;;12.70;98.00;;;;;;5115677;27;20470;-67
2022/10/30 03:02:10;;;;;;;3.77;2.47;;;12.60;98.00;;;;;;5133716;27;20455;-67
2022/10/30 03:04:37;;;;;;;5.40;2.47;;;12.60;98.00;;;;;;5132984;27;20837;-67
2022/10/30 03:07:04;;;;;;;8.30;2.30;;;12.90;98.00;;;;;;5133804;27;20478;-67
2022/10/30 03:09:31;;;;;;;3.80;2.20;;;13.00;98.00;;;;;;5133773;27;20458;-67
2022/10/30 03:11:59;;;;;;;2.97;2.00;;;13.00;98.00;;;;;;5134118;27;20803;-67
2022/10/30 03:14:26;;;;;;;4.33;2.50;;;12.80;98.00;;;;;;5133520;27;20521;-67
2022/10/30 03:16:53;;;;;;;8.40;2.00;;;12.70;98.00;;;;;;5132276;27;20981;-67
2022/10/30 03:19:20;;;;;;;2.90;1.97;;;12.50;98.00;;;;;;5133328;27;20451;-66
2022/10/30 03:21:48;;;;;;;6.37;2.47;;;12.40;98.00;;;;;;5132643;27;20450;-67
2022/10/30 03:24:16;;;;;;;6.03;2.63;;;12.40;98.00;;;;;;5132618;27;21144;-67
2022/10/30 03:26:43;;;;;;;5.50;2.47;;;12.30;98.00;;;;;;5132574;27;20508;-67
2022/10/30 03:29:11;;;;;;;4.27;2.60;;;12.30;98.00;;;;;;5132572;27;20450;-67
2022/10/30 03:31:38;;;;;;;4.33;2.40;;;12.30;98.00;;;;;;5133172;27;20459;-67
2022/10/30 03:34:05;;;;;;;3.67;2.97;;;12.20;98.00;;;;;;5133220;27;20460;-67
2022/10/30 03:36:32;;;;;;;7.73;2.77;;;12.20;98.00;;;;;;5131986;27;20453;-66
2022/10/30 03:38:59;;;;;;;5.77;2.43;;;12.30;98.00;;;;;;5133280;27;20547;-67
2022/10/30 03:41:26;;;;;;;3.83;2.00;;;12.60;98.00;;;;;;5133045;27;20461;-67
2022/10/30 03:43:53;;;;;;;11.80;2.80;;;12.60;98.00;;;;;;5131962;27;20796;-67
2022/10/30 03:46:22;;;;;;;3.67;1.97;;;12.50;98.00;;;;;;5132955;27;20617;-67
2022/10/30 03:48:49;;;;;;;3.87;2.60;;;12.40;98.00;;;;;;5133126;27;20449;-67
2022/10/30 03:51:16;;;;;;;4.80;2.23;;;12.20;98.00;;;;;;5132542;27;20537;-67
2022/10/30 03:53:43;;;;;;;3.20;2.20;;;12.10;98.00;;;;;;5132974;27;20836;-67
2022/10/30 03:56:11;;;;;;;5.63;3.00;;;12.10;98.00;;;;;;5132896;27;20481;-67
2022/10/30 03:58:38;;;;;;;4.93;2.23;;;12.10;98.00;;;;;;5132922;28;20461;-67
2022/10/30 04:01:07;;;;;;;7.33;2.30;;;12.20;98.00;;;;;;5132933;27;20452;-67
2022/10/30 04:03:35;;;;;;;3.10;1.97;;;12.10;98.00;;;;;;5132902;28;20445;-67
2022/10/30 04:06:02;;;;;;;3.70;2.70;;;12.10;98.00;;;;;;5133259;28;20970;-67
2022/10/30 04:08:29;;;;;;;4.20;2.57;;;12.00;98.00;;;;;;5133094;27;20837;-67
2022/10/30 04:10:56;;;;;;;4.80;2.60;;;12.00;98.00;;;;;;5131396;28;20457;-67
2022/10/30 04:13:24;;;;;;;5.67;2.80;;;12.00;98.00;;;;;;5132740;27;20788;-67
2022/10/30 04:15:53;;;;;;;3.90;2.80;;;12.10;98.00;;;;;;5132672;28;20447;-67
2022/10/30 04:18:20;;;;;;;5.50;2.63;;;12.00;98.00;;;;;;5131955;27;20516;-67
2022/10/30 04:20:49;;;;;;;4.47;2.50;;;11.90;98.00;;;;;;5132601;28;20993;-67
2022/10/30 04:23:18;;;;;;;5.00;2.57;;;11.90;98.00;;;;;;5132574;27;20450;-67
2022/10/30 04:25:45;;;;;;;4.27;2.47;;;11.80;98.00;;;;;;5132609;27;20959;-67
2022/10/30 04:28:12;;;;;;;4.70;2.17;;;11.80;98.00;;;;;;5132626;28;20455;-67
2022/10/30 04:30:39;;;;;;;3.87;2.30;;;11.80;98.00;;;;;;5132583;28;20464;-67
2022/10/30 04:33:10;;;;;;;2.77;2.10;;;11.80;98.00;;;;;;5132678;27;20460;-67
2022/10/30 04:35:37;;;;;;;2.90;2.37;;;11.80;98.00;;;;;;5132209;27;20954;-67
2022/10/30 04:38:07;;;;;;;3.03;2.20;;;11.70;98.00;;;;;;5131243;28;21080;-67
2022/10/30 04:40:35;;;;;;;3.80;2.30;;;11.60;98.00;;;;;;5132523;28;20460;-67
2022/10/30 04:43:03;;;;;;;5.83;3.50;;;11.60;98.00;;;;;;5132563;28;20471;-67
2022/10/30 04:45:30;;;;;;;3.90;1.97;;;11.50;98.00;;;;;;5132512;27;20509;-67
2022/10/30 04:48:02;;;;;;;5.53;2.43;;;11.70;98.00;;;;;;5132610;28;20485;-67
2022/10/30 04:50:30;;;;;;;21.43;2.53;;;11.70;98.00;;;;;;5131178;28;20540;-67
2022/10/30 04:53:01;;;;;;;4.47;2.30;;;11.70;98.00;;;;;;5132532;27;20459;-67
2022/10/30 04:55:33;;;;;;;9.27;2.93;;;11.70;98.00;;;;;;5132563;28;20459;-67
2022/10/30 04:58:02;;;;;;;5.43;2.73;;;11.80;98.00;;;;;;5132490;27;20527;-66
2022/10/30 05:00:29;;;;;;;5.33;2.80;;;11.80;98.00;;;;;;5132368;27;20492;-67
2022/10/30 05:03:00;;;;;;;3.40;2.17;;;11.80;98.00;;;;;;5133176;27;20875;-67
2022/10/30 05:05:27;;;;;;;6.83;2.53;;;11.80;98.00;;;;;;5135929;27;20568;-67
2022/10/30 05:07:54;;;;;;;4.93;2.80;;;11.70;98.00;;;;;;5135940;27;20483;-66
2022/10/30 05:10:21;;;;;;;7.67;3.00;;;11.70;98.00;;;;;;5135762;27;20884;-67
2022/10/30 05:12:52;;;;;;;2.60;2.03;;;11.80;98.00;;;;;;5134852;27;20830;-67
2022/10/30 05:15:19;;;;;;;4.17;2.30;;;11.90;98.00;;;;;;5135772;27;20860;-66
2022/10/30 05:17:50;;;;;;;4.10;2.20;;;11.90;98.00;;;;;;5135763;27;20867;-67
2022/10/30 05:20:17;;;;;;;5.03;2.33;;;12.00;98.00;;;;;;5135602;27;20462;-67
2022/10/30 05:22:44;;;;;;;6.20;2.00;;;12.00;98.00;;;;;;5134421;27;20455;-67
2022/10/30 05:25:12;;;;;;;3.53;2.27;;;12.00;98.00;;;;;;5134492;27;20958;-66
2022/10/30 05:27:39;;;;;;;4.00;2.00;;;11.80;98.00;;;;;;5134266;27;20533;-67
2022/10/30 05:30:12;;;;;;;7.80;2.60;;;11.60;98.00;;;;;;5135605;27;20453;-67
2022/10/30 05:32:39;;;;;;;7.20;3.10;;;11.50;98.00;;;;;;5135627;27;20457;-66
2022/10/30 05:35:10;;;;;;;5.00;2.50;;;11.50;98.00;;;;;;5135592;27;20937;-67
2022/10/30 05:37:36;;;;;;;5.77;2.17;;;11.60;98.00;;;;;;5135653;27;20490;-67
2022/10/30 05:40:04;;;;;;;7.23;2.27;;;11.50;98.00;;;;;;5135530;27;20461;-67
2022/10/30 05:42:31;;;;;;;14.07;2.93;;;11.60;98.00;;;;;;5135407;27;20451;-67
2022/10/30 05:44:58;;;;;;;3.50;2.33;;;11.60;98.00;;;;;;5135568;27;20460;-67
2022/10/30 05:47:28;;;;;;;4.17;2.60;;;11.50;98.00;;;;;;5135457;27;20474;-67
2022/10/30 05:49:56;;;;;;;8.30;2.50;;;11.50;98.00;;;;;;5135570;27;20517;-67
2022/10/30 05:52:26;;;;;;;4.23;2.37;;;11.40;98.00;;;;;;5117225;27;20461;-67
2022/10/30 05:54:53;;;;;;;3.60;2.30;;;11.40;98.00;;;;;;5135025;27;20985;-67
2022/10/30 05:57:20;;;;;;;3.30;2.30;;;11.40;98.00;;;;;;5134910;27;20460;-67
2022/10/30 05:59:47;;;;;;;6.63;2.53;;;11.40;98.00;;;;;;5135025;27;20451;-67
2022/10/30 06:02:14;;;;;;;4.37;2.60;;;11.40;98.00;;;;;;5134764;27;20450;-67
2022/10/30 06:04:42;;;;;;;3.67;2.20;;;11.50;98.00;;;;;;5135039;27;20453;-67
2022/10/30 06:07:10;;;;;;;6.33;2.90;;;11.60;98.00;;;;;;5134725;27;20547;-67
2022/10/30 06:09:37;;;;;;;6.20;2.57;;;11.50;98.00;;;;;;5134670;27;20508;-67
2022/10/30 06:12:05;;;;;;;6.57;2.87;;;11.50;98.00;;;;;;5134793;27;20484;-66
2022/10/30 06:14:32;;;;;;;5.13;2.70;;;11.60;98.00;;;;;;5134329;27;20856;-67
2022/10/30 06:16:59;;;;;;;3.20;2.10;;;11.60;98.00;;;;;;5134711;27;20457;-67
2022/10/30 06:19:26;;;;;;;3.63;2.30;;;11.50;98.00;;;;;;5134584;27;20463;-67
2022/10/30 06:21:56;;;;;;;3.77;2.30;;;11.50;98.00;;;;;;5134568;27;20465;-67
2022/10/30 06:24:23;;;;;;;8.70;2.43;;;11.50;98.00;;;;;;5133174;27;20464;-67
2022/10/30 06:26:50;;;;;;;10.17;3.90;;;11.50;98.00;;;;;;5134494;27;20483;-67
2022/10/30 06:29:18;;;;;;;4.20;2.30;;;11.50;98.00;;;;;;5134511;27;20546;-67
2022/10/30 06:31:45;;;;;;;3.03;2.10;;;11.50;98.00;;;;;;5134159;27;20454;-67
2022/10/30 06:34:11;;;;;;;5.50;2.60;;;11.60;98.00;;;;;;5134552;27;20452;-67
2022/10/30 06:36:39;;;;;;;4.30;2.57;;;11.70;98.00;;;;;;5134324;27;20458;-67
2022/10/30 06:39:07;;;;;;;5.10;2.63;;;11.70;98.00;;;;;;5133427;27;20456;-67
2022/10/30 06:41:34;;;;;;;19.80;3.07;;;11.60;98.00;;;;;;5134530;27;20455;-67
2022/10/30 06:44:01;;;;;;;4.63;2.60;;;11.60;98.00;;;;;;5133293;27;20453;-67
2022/10/30 06:46:28;;;;;;;4.70;2.47;;;11.40;98.00;;;;;;5134187;27;20461;-67
2022/10/30 06:48:55;;;;;;;4.00;2.43;;;11.40;98.00;;;;;;5134202;27;20456;-67
2022/10/30 06:51:23;;;;;;;4.70;2.50;;;11.40;98.00;;;;;;5133964;27;20467;-67
2022/10/30 06:53:50;;;;;;;4.00;2.23;;;11.40;98.00;;;;;;5133927;27;20520;-67
2022/10/30 06:56:19;;;;;;;5.63;3.10;;;11.40;98.00;;;;;;5133757;27;20453;-67
2022/10/30 06:58:46;;;;;;;3.23;2.70;;;11.40;98.00;;;;;;5132819;27;20470;-67
2022/10/30 07:01:13;;;;;;;6.93;2.30;;;11.50;98.00;;;;;;5133720;27;20481;-67
2022/10/30 07:03:40;;;;;;;2.20;2.10;;;11.50;98.00;;;;;;5133542;27;20864;-67
2022/10/30 07:06:08;;;;;;;4.87;2.70;;;11.40;98.00;;;;;;5133772;27;20510;-67
2022/10/30 07:08:35;;;;;;;13.03;2.93;;;11.40;98.00;;;;;;5133376;27;20478;-67
2022/10/30 07:11:02;;;;;;;3.87;2.80;;;11.30;98.00;;;;;;5133332;27;20451;-65
2022/10/30 07:13:31;;;;;;;9.20;2.83;;;11.30;98.00;;;;;;5133578;27;20859;-65
2022/10/30 07:15:58;;;;;;;3.23;2.00;;;11.30;98.00;;;;;;5133449;27;21060;-65
2022/10/30 07:18:26;;;;;;;3.87;2.30;;;11.30;98.00;;;;;;5133493;27;20454;-65
2022/10/30 07:20:54;;;;;;;4.47;2.60;;;11.40;98.00;;;;;;5133554;27;20981;-65
2022/10/30 07:23:23;;;;;;;3.93;2.20;;;11.50;98.00;;;;;;5133361;27;20871;-65
2022/10/30 07:25:50;;;;;;;4.17;2.47;;;11.60;98.00;;;;;;5132801;27;20457;-65
2022/10/30 07:28:17;;;;;;;4.63;2.40;;;11.70;98.00;;;;;;5133416;27;20489;-65
2022/10/30 07:30:46;;;;;;;7.50;3.10;;;11.80;98.00;;;;;;5133304;27;20956;-65
2022/10/30 07:33:13;;;;;;;3.70;2.60;;;12.00;98.00;;;;;;5133515;27;20450;-65
2022/10/30 07:35:40;;;;;;;8.70;3.43;;;12.10;98.00;;;;;;5133437;27;20461;-65
2022/10/30 07:38:10;;;;;;;6.43;3.30;;;12.20;98.00;;;;;;5133549;27;20462;-65
2022/10/30 07:40:37;;;;;;;3.23;2.60;;;12.20;98.00;;;;;;5133413;27;21021;-65
2022/10/30 07:43:05;;;;;;;6.23;2.87;;;12.20;98.00;;;;;;5132624;27;20509;-65
2022/10/30 07:45:33;;;;;;;6.60;3.10;;;12.30;98.00;;;;;;5131353;27;21003;-64
2022/10/30 07:48:02;;;;;;;9.23;3.20;;;12.40;98.00;;;;;;5131814;27;20475;-65
2022/10/30 07:50:30;;;;;;;7.90;3.60;;;12.40;98.00;;;;;;5131174;27;20504;-65
2022/10/30 07:52:58;;;;;;;4.10;2.83;;;12.40;98.00;;;;;;5131787;27;20511;-65
2022/10/30 07:55:25;;;;;;;11.13;3.50;;;12.50;98.00;;;;;;5132468;27;20460;-65
2022/10/30 07:57:53;;;;;;;4.40;2.83;;;12.60;98.00;;;;;;5132803;27;20451;-65
2022/10/30 08:00:20;;;;;;;2.93;2.10;;;12.60;98.00;;;;;;5132807;27;20458;-65
2022/10/30 08:02:50;;;;;;;5.53;2.80;;;12.60;98.00;;;;;;5132850;28;20450;-64
2022/10/30 08:05:19;;;;;;;5.17;2.63;;;12.60;98.00;;;;;;5132935;28;21006;-65
2022/10/30 08:07:47;;;;;;;11.30;3.17;;;12.70;98.00;;;;;;5132773;28;20538;-65
2022/10/30 08:10:14;;;;;;;15.43;3.30;;;12.90;98.00;;;;;;5132820;28;21043;-65
2022/10/30 08:12:43;;;;;;;4.63;2.70;;;13.00;98.00;;;;;;5132944;28;20454;-65
2022/10/30 08:15:11;;;;;;;3.27;2.70;;;13.10;98.00;;;;;;5132739;27;20458;-65
2022/10/30 08:17:42;;;;;;;6.37;3.50;;;13.20;98.00;;;;;;5131612;28;20947;-65
2022/10/30 08:20:11;;;;;;;4.50;2.90;;;13.30;98.00;;;;;;5131685;28;20502;-65
2022/10/30 08:22:46;;;;;;;5.80;3.30;;;13.40;98.00;;;;;;5132675;27;20456;-65
2022/10/30 08:25:13;;;;;;;3.50;2.47;;;13.40;98.00;;;;;;5132786;28;20459;-65
2022/10/30 08:27:50;;;;;;;20.73;3.47;;;13.40;98.00;;;;;;5132774;27;21047;-65
2022/10/30 08:30:17;;;;;;;3.40;2.50;;;13.40;98.00;;;;;;5132936;28;20455;-65
2022/10/30 08:32:44;;;;;;;7.07;3.13;;;13.50;98.00;;;;;;5132874;28;20458;-65
2022/10/30 08:35:12;;;;;;;4.63;2.70;;;13.50;98.00;;;;;;5132672;28;20550;-65
2022/10/30 08:37:39;;;;;;;5.20;3.63;;;13.60;98.00;;;;;;5134155;27;21007;-65
2022/10/30 08:40:12;;;;;;;5.40;3.33;;;13.70;98.00;;;;;;5136377;27;20444;-65
2022/10/30 08:42:39;;;;;;;6.90;2.70;;;13.80;98.00;;;;;;5136439;27;20468;-65
2022/10/30 08:45:07;;;;;;;8.57;3.40;;;13.80;98.00;;;;;;5136433;27;20447;-65
2022/10/30 08:47:34;;;;;;;9.30;3.20;;;14.00;98.00;;;;;;5134974;27;20481;-64
2022/10/30 08:50:01;;;;;;;4.40;2.73;;;14.10;98.00;;;;;;5300687;22;20501;-65
2022/10/30 08:52:28;;;;;;;6.00;3.33;;;14.10;98.00;;;;;;5115056;28;20457;-65
2022/10/30 08:54:56;;;;;;;6.00;2.70;;;14.20;98.00;;;;;;5114056;28;20586;-66
2022/10/30 08:57:24;;;;;;;5.17;2.87;;;14.20;98.00;;;;;;5115667;27;20538;-65
2022/10/30 08:59:51;;;;;;;6.70;2.83;;;14.30;98.00;;;;;;5115592;28;20449;-66
2022/10/30 09:02:18;;;;;;;9.50;3.50;;;14.40;98.00;;;;;;5115066;28;20467;-65
2022/10/30 09:04:46;;;;;;;5.53;3.10;;;14.50;98.00;;;;;;5111584;28;20467;-65
2022/10/30 09:07:13;;;;;;;5.23;3.10;;;14.60;98.00;;;;;;5095025;28;20462;-65
2022/10/30 09:09:40;;;;;;;5.17;3.00;;;14.70;98.00;;;;;;5095072;28;20461;-65
2022/10/30 09:12:07;;;;;;;10.77;3.77;;;14.80;98.00;;;;;;5095127;28;20500;-65
2022/10/30 09:14:36;;;;;;;8.57;3.20;;;14.90;98.00;;;;;;5095104;28;20468;-65
2022/10/30 09:17:03;;;;;;;6.93;3.10;;;15.00;98.00;;;;;;5094734;28;20470;-65
2022/10/30 09:19:30;;;;;;;6.80;2.97;;;15.00;98.00;;;;;;5094718;28;20775;-65
2022/10/30 09:21:57;;;;;;;5.77;3.43;;;15.10;98.00;;;;;;5111988;28;20465;-65
2022/10/30 09:24:24;;;;;;;4.53;2.87;;;15.20;98.00;;;;;;5112939;28;20459;-65
2022/10/30 09:26:52;;;;;;;6.30;3.33;;;15.30;98.00;;;;;;5112497;28;20462;-65
2022/10/30 09:29:19;;;;;;;8.47;2.97;;;15.40;98.00;;;;;;5112360;28;20490;-65
2022/10/30 09:31:48;;;;;;;6.90;3.60;;;15.50;98.00;;;;;;5112243;28;20952;-65
2022/10/30 09:34:15;;;;;;;6.17;3.10;;;15.70;98.00;;;;;;5112370;28;20443;-65
2022/10/30 09:36:45;;;;;;;4.80;3.10;;;15.80;98.00;;;;;;5112211;28;20451;-65
2022/10/30 09:39:12;;;;;;;7.37;3.37;;;15.90;98.00;;;;;;5091278;28;20459;-65
2022/10/30 09:41:56;;;;;;;6.80;4.17;;;16.10;98.00;;;;;;5111723;28;20868;-65
2022/10/30 09:44:36;;;;;;;5.20;3.23;;;16.20;98.00;;;;;;5111812;28;20451;-66
2022/10/30 09:47:17;;;;;;;6.20;3.30;;;16.40;98.00;;;;;;5111868;28;20470;-66
2022/10/30 09:50:07;;;;;;;9.50;3.87;;;16.60;98.00;;;;;;5106873;28;20494;-66
2022/10/30 09:52:42;;;;;;;15.87;3.17;;;16.70;98.00;;;;;;5109362;28;20454;-66
2022/10/30 09:55:21;;;;;;;5.30;3.23;;;16.90;98.00;;;;;;5111312;28;20984;-65
2022/10/30 09:57:57;;;;;;;5.07;2.97;;;17.00;98.00;;;;;;5109188;28;21101;-65
2022/10/30 10:00:30;;;;;;;5.50;3.27;;;17.10;98.00;;;;;;5111149;28;20458;-66
2022/10/30 10:03:14;;;;;;;6.10;3.17;;;17.20;98.00;;;;;;5110958;28;20972;-66
2022/10/30 10:05:46;;;;;;;8.23;2.57;;;17.40;98.00;;;;;;5111110;28;20459;-66
2022/10/30 10:08:17;;;;;;;6.13;3.70;;;17.50;98.00;;;;;;5110942;28;20579;-67
2022/10/30 10:10:46;;;;;;;10.20;3.13;;;17.60;98.00;;;;;;5110775;28;20550;-66
2022/10/30 10:13:24;;;;;;;9.70;3.50;;;17.80;98.00;;;;;;5111065;28;20455;-66
2022/10/30 10:15:55;;;;;;;5.37;2.90;;;17.90;98.00;;;;;;5111044;28;20477;-66
2022/10/30 10:18:28;;;;;;;11.70;3.80;;;18.10;98.00;;;;;;5111076;27;20868;-66
2022/10/30 10:20:59;;;;;;;7.03;2.70;;;18.20;98.00;;;;;;5110239;28;20872;-65
2022/10/30 10:23:32;;;;;;;3.90;2.63;;;18.40;98.00;;;;;;5110709;28;20470;-65
2022/10/30 10:26:05;;;;;;;8.90;3.80;;;18.60;98.00;;;;;;5110669;28;20459;-66
2022/10/30 10:28:52;;;;;;;4.63;2.80;;;18.80;98.00;;;;;;5110570;28;20495;-66
2022/10/30 10:31:30;;;;;;;4.73;2.80;;;19.10;98.00;;;;;;5109863;28;20463;-66
2022/10/30 10:34:12;;;;;;;8.57;3.27;;;19.20;98.00;;;;;;5111198;28;20463;-66
2022/10/30 10:36:46;;;;;;;5.43;3.03;;;19.40;98.00;;;;;;5112079;28;20458;-66
2022/10/30 10:39:32;;;;;;;4.43;2.93;;;19.60;98.00;;;;;;5111058;28;20462;-66
2022/10/30 10:42:09;;;;;;;5.20;2.87;;;19.80;98.00;;;;;;5110517;28;20953;-66
2022/10/30 10:44:47;;;;;;;5.33;2.60;;;20.00;98.00;;;;;;5109413;28;20451;-66
2022/10/30 10:47:34;;;;;;;8.27;3.10;;;20.20;98.00;;;;;;5112551;28;20454;-66
2022/10/30 10:50:16;;;;;;;6.17;2.90;;;20.50;98.00;;;;;;5112716;28;20494;-66
2022/10/30 10:52:47;;;;;;;4.27;2.63;;;20.80;98.00;;;;;;5112994;28;20470;-66
2022/10/30 10:55:17;;;;;;;4.20;2.43;;;21.10;98.00;;;;;;5113350;28;20462;-66
2022/10/30 10:57:45;;;;;;;6.93;3.10;;;21.30;98.00;;;;;;5113427;28;20960;-66
2022/10/30 11:00:17;;;;;;;4.00;2.63;;;21.50;98.00;;;;;;5111021;28;20470;-66
2022/10/30 11:02:51;;;;;;;4.50;2.40;;;21.90;98.00;;;;;;5111896;28;20462;-66
2022/10/30 11:05:29;;;;;;;5.83;3.00;;;22.10;98.00;;;;;;5112073;28;21028;-66
2022/10/30 11:08:01;;;;;;;9.30;2.87;;;22.30;98.00;;;;;;5113421;28;20507;-66
2022/10/30 11:10:28;;;;;;;3.80;2.50;;;22.60;98.00;;;;;;5112303;28;20458;-66
2022/10/30 11:12:55;;;;;;;5.63;2.93;;;22.80;98.00;;;;;;5113383;28;20459;-66
2022/10/30 11:15:31;;;;;;;4.37;2.63;;;23.10;98.00;;;;;;5113209;28;20455;-66
2022/10/30 11:18:02;;;;;;;3.40;2.57;;;23.40;98.00;;;;;;5112917;28;20469;-66
2022/10/30 11:20:40;;;;;;;4.90;2.33;;;23.70;98.00;;;;;;5111922;28;20455;-66
2022/10/30 11:23:32;;;;;;;4.40;2.90;;;24.10;98.00;;;;;;5111772;28;20461;-66
2022/10/30 11:26:02;;;;;;;6.33;2.87;;;24.50;98.00;;;;;;5112978;27;20483;-66
2022/10/30 11:28:39;;;;;;;5.90;2.47;;;24.70;98.00;;;;;;5111383;28;20474;-66
2022/10/30 11:31:20;;;;;;;4.70;2.73;;;25.00;98.00;;;;;;5112805;28;20512;-66
2022/10/30 11:33:48;;;;;;;4.33;2.80;;;25.20;98.00;;;;;;5112734;28;20882;-66
2022/10/30 11:36:19;;;;;;;4.80;2.53;;;25.50;98.00;;;;;;5112591;28;20512;-66
2022/10/30 11:38:46;;;;;;;6.20;2.63;;;25.80;97.20;;;;;;5112728;28;20447;-66
2022/10/30 11:41:14;;;;;;;5.60;2.77;;;26.10;96.90;;;;;;5112439;28;20458;-67
2022/10/30 11:43:42;;;;;;;11.90;3.00;;;26.30;96.50;;;;;;5112614;28;20467;-66
2022/10/30 11:46:17;;;;;;;4.20;2.80;;;26.50;97.60;;;;;;5112557;28;20524;-66
2022/10/30 11:48:45;;;;;;;9.37;3.07;;;26.70;97.20;;;;;;5112522;28;20482;-66
2022/10/30 11:51:13;;;;;;;6.07;2.63;;;26.80;96.70;;;;;;5112243;28;20491;-66
2022/10/30 11:53:49;;;;;;;4.50;2.73;;;27.00;96.80;;;;;;5112719;28;20451;-66
2022/10/30 11:56:19;;;;;;;3.50;2.40;;;27.10;95.20;;;;;;5112530;28;20474;-67
2022/10/30 11:58:50;;;;;;;4.20;2.83;;;27.20;95.40;;;;;;5112617;28;20458;-67
2022/10/30 12:01:24;;;;;;;5.53;3.20;;;27.00;94.50;;;;;;5112476;28;20508;-66
2022/10/30 12:03:53;;;;;;;11.50;3.00;;;26.90;96.10;;;;;;5112602;28;20447;-66
2022/10/30 12:06:25;;;;;;;7.10;3.10;;;26.70;97.10;;;;;;5112575;28;20889;-67
2022/10/30 12:09:02;;;;;;;4.20;2.60;;;26.70;98.00;;;;;;5112449;28;20528;-66
2022/10/30 12:11:32;;;;;;;4.33;2.40;;;26.50;98.00;;;;;;5112201;28;20454;-67
2022/10/30 12:14:00;;;;;;;3.33;2.60;;;26.40;98.00;;;;;;5116787;28;20462;-66
2022/10/30 12:16:28;;;;;;;11.33;2.93;;;26.20;98.00;;;;;;5116295;28;20447;-66
2022/10/30 12:19:02;;;;;;;11.53;2.73;;;26.30;98.00;;;;;;5116698;28;20507;-67
2022/10/30 12:21:35;;;;;;;5.57;2.70;;;26.50;98.00;;;;;;5116376;28;20531;-67
2022/10/30 12:24:08;;;;;;;3.90;2.70;;;26.80;98.00;;;;;;5116562;28;20526;-67
2022/10/30 12:26:38;;;;;;;6.67;3.00;;;27.00;98.00;;;;;;5116294;28;20477;-67
2022/10/30 12:29:08;;;;;;;6.00;2.53;;;27.00;98.00;;;;;;5116382;28;21000;-66
2022/10/30 12:31:40;;;;;;;4.40;2.80;;;27.10;98.00;;;;;;5116149;28;20458;-66
2022/10/30 12:34:26;;;;;;;4.07;2.60;;;27.10;98.00;;;;;;5116344;28;20459;-66
2022/10/30 12:37:00;;;;;;;6.00;2.63;;;27.00;98.00;;;;;;5113616;28;20463;-67
2022/10/30 12:39:36;;;;;;;7.10;3.03;;;27.00;98.00;;;;;;5116106;28;21116;-67
2022/10/30 12:42:09;;;;;;;8.20;3.03;;;27.00;98.00;;;;;;5115989;28;20450;-67
2022/10/30 12:44:41;;;;;;;8.07;2.70;;;27.10;98.00;;;;;;5114863;28;20503;-66
2022/10/30 12:47:17;;;;;;;4.90;2.60;;;27.20;98.00;;;;;;5115911;28;20937;-67
2022/10/30 12:49:50;;;;;;;4.00;2.43;;;27.20;98.00;;;;;;5115931;28;20482;-66
2022/10/30 12:52:21;;;;;;;9.30;3.20;;;27.20;98.00;;;;;;5115846;28;20948;-67
2022/10/30 12:54:55;;;;;;;7.90;2.80;;;27.30;98.00;;;;;;5115928;28;20459;-66
2022/10/30 12:57:26;;;;;;;3.97;2.67;;;27.40;98.00;;;;;;5115801;28;20455;-67
2022/10/30 13:00:02;;;;;;;4.93;2.53;;;27.40;98.00;;;;;;5115824;28;20458;-67